Terminal Aerodrome Forecast
Issued by NWS Sterling, VA

Current Version | Previous Version | Text Only | Print | Product List | Glossary On
Versions: 1 2 3 4 5 6 7 8 9 10 11 12 13 14 15 16 17 18
000
FTUS41 KLWX 251738
TAFMRB
TAF
KMRB 251738Z 2518/2618 VRB03KT P6SM SCT050
     FM260500 17005KT P6SM BKN070
     FM260900 18006KT 4SM BR SCT070
     FM261200 20005KT P6SM BKN250=

USA.gov is the U.S. government's official web portal to all federal, state and local government web resources and services.